Portada
METAR-TAF:

METAR-TAF

Aeroports :

Aeroport Internacional Maiquetía Simón Bolívar

Caracas, Veneçuela

latitud: 10-36N, longitud: 066-59W, altitud: 43 m

Observació

L'informe es va fer fa 1 hora i 3 minuts, a les 19:00 UTC
Vent 3 kt del Est/Nord-Est
Temperatura 30°C
Humitat 75%
Pressió 1006 hPa
Visibilitat 10 km o més
Núvols disperses a una alçada de 1600 ft

METAR: SVMI 201900Z 07003KT 9999 SCT016 30/25 Q1006

Hora: 16:03 (20:03 UTC)


TAF: manca

Observacions i pronòstics meteorològics de més de 4000 aeroports (METAR i TAF).

Les estacions disponibles són els punts grocs i vermells al mapa.

Posi el ratolí al punt desitjat per veure el nom de l'estació.

Feu clic per veure les observacions i els pronòstics meteorològics.

Per canviar el mapa: feu clic els botons verds amb una creu de color negre per apropar; al botó verd amb un guió per allunyar la imatge; o en les fletxes verdes per a mapes adjacents.


METAR-TAF: